Time;durP1;ratioP1;P1;durP2;ratioP2;P2;SDS_P1;SDS_P2;PMS_P1;PMS_P2;Temp;Humidity;BMP_temperature;BMP_pressure;BME280_temperature;BME280_humidity;BME280_pressure;Samples;Min_cycle;Max_cycle;Signal;HPM_P1;HPM_P2
2023/11/02 00:02:03;;;;;;;3.27;1.90;;;6.30;99.90;;;;;;5070173;28;21880;-85
2023/11/02 00:04:29;;;;;;;4.23;2.43;;;6.20;99.90;;;;;;5074725;28;20028;-85
2023/11/02 00:06:57;;;;;;;4.33;2.20;;;6.20;99.90;;;;;;5070509;28;20047;-82
2023/11/02 00:09:32;;;;;;;5.77;2.43;;;6.20;99.90;;;;;;5072206;28;21047;-84
2023/11/02 00:12:02;;;;;;;3.10;2.20;;;6.20;99.90;;;;;;5072917;28;20382;-82
2023/11/02 00:14:43;;;;;;;2.70;1.80;;;6.20;99.90;;;;;;5073063;28;20024;-83
2023/11/02 00:17:35;;;;;;;7.77;2.00;;;6.20;99.90;;;;;;5074278;28;20039;-85
2023/11/02 00:20:25;;;;;;;11.17;2.30;;;6.10;99.90;;;;;;5072236;28;20024;-82
2023/11/02 00:22:51;;;;;;;3.07;2.00;;;6.10;99.90;;;;;;5072199;28;20027;-84
2023/11/02 00:25:44;;;;;;;3.30;1.90;;;6.00;99.90;;;;;;5070433;28;20023;-84
2023/11/02 00:28:09;;;;;;;4.80;2.00;;;6.00;99.90;;;;;;5070977;28;20029;-87
2023/11/02 00:30:40;;;;;;;3.03;2.00;;;6.00;99.90;;;;;;5070934;28;20028;-83
2023/11/02 00:33:05;;;;;;;3.27;2.17;;;5.90;99.90;;;;;;5069715;28;20054;-83
2023/11/02 00:35:32;;;;;;;3.70;2.07;;;5.90;99.90;;;;;;5070839;28;20021;-82
2023/11/02 00:37:58;;;;;;;4.53;2.20;;;5.90;99.90;;;;;;5072393;28;20048;-84
2023/11/02 00:40:23;;;;;;;5.03;2.10;;;5.90;99.90;;;;;;5070854;28;20032;-82
2023/11/02 00:42:49;;;;;;;7.10;2.17;;;5.80;99.90;;;;;;5070439;28;20032;-82
2023/11/02 00:45:15;;;;;;;3.30;2.00;;;5.90;99.90;;;;;;5067974;28;20407;-82
2023/11/02 00:47:41;;;;;;;3.57;1.90;;;5.80;99.90;;;;;;5070024;28;20139;-82
2023/11/02 00:50:45;;;;;;;6.03;2.40;;;5.80;99.90;;;;;;5068833;28;20103;-84
2023/11/02 00:53:11;;;;;;;3.57;2.20;;;5.80;99.90;;;;;;5069077;28;20044;-83
2023/11/02 00:55:37;;;;;;;4.53;1.90;;;5.80;99.90;;;;;;5072827;28;20067;-82
2023/11/02 00:58:09;;;;;;;4.23;2.03;;;5.70;99.90;;;;;;5072758;28;20017;-84
2023/11/02 01:00:52;;;;;;;3.23;1.80;;;5.70;99.90;;;;;;5071119;28;20028;-82
2023/11/02 01:03:18;;;;;;;3.77;1.90;;;5.70;99.90;;;;;;5071409;28;21038;-84
2023/11/02 01:05:44;;;;;;;6.07;2.50;;;5.60;99.90;;;;;;5069820;28;20078;-85
2023/11/02 01:08:14;;;;;;;3.93;2.10;;;5.60;99.90;;;;;;5069853;28;20036;-84
2023/11/02 01:10:41;;;;;;;4.83;2.57;;;5.50;99.90;;;;;;5073546;28;20044;-82
2023/11/02 01:13:08;;;;;;;3.90;1.90;;;5.50;99.90;;;;;;5078833;28;20036;-84
2023/11/02 01:15:43;;;;;;;3.27;2.17;;;5.50;99.90;;;;;;5073505;28;20553;-87
2023/11/02 01:18:10;;;;;;;4.00;2.30;;;5.50;99.90;;;;;;5073697;28;20020;-85
2023/11/02 01:20:39;;;;;;;3.33;2.20;;;5.50;99.90;;;;;;5072661;28;20103;-85
2023/11/02 01:23:09;;;;;;;3.83;2.17;;;5.50;99.90;;;;;;5073504;28;20033;-84
2023/11/02 01:25:42;;;;;;;5.27;2.07;;;5.40;99.90;;;;;;5073046;28;20029;-83
2023/11/02 01:28:16;;;;;;;4.13;2.10;;;5.40;99.90;;;;;;5071878;28;20048;-81
2023/11/02 01:30:41;;;;;;;5.27;2.13;;;5.40;99.90;;;;;;5073042;28;20044;-82
2023/11/02 01:33:38;;;;;;;4.03;1.90;;;5.40;99.90;;;;;;5072649;28;20064;-83
2023/11/02 01:36:07;;;;;;;4.53;1.90;;;5.40;99.90;;;;;;5072145;28;20024;-83
2023/11/02 01:38:34;;;;;;;4.07;2.00;;;5.40;99.90;;;;;;5071056;28;20402;-86
2023/11/02 01:41:09;;;;;;;7.67;2.70;;;5.30;99.90;;;;;;5071971;28;20033;-83
2023/11/02 01:43:37;;;;;;;9.57;2.40;;;5.40;99.90;;;;;;5070923;28;20089;-83
2023/11/02 01:46:10;;;;;;;6.10;2.40;;;5.40;99.90;;;;;;5071523;28;20033;-84
2023/11/02 01:48:39;;;;;;;2.77;1.90;;;5.40;99.90;;;;;;5074873;28;20033;-84
2023/11/02 01:51:14;;;;;;;4.70;2.43;;;5.40;99.90;;;;;;5071242;28;20165;-83
2023/11/02 01:54:05;;;;;;;5.63;2.88;;;5.50;99.90;;;;;;5071886;28;20024;-84
2023/11/02 01:56:47;;;;;;;3.27;2.20;;;5.50;99.90;;;;;;5071587;28;20040;-84
2023/11/02 01:59:20;;;;;;;3.53;2.40;;;5.50;99.90;;;;;;5073696;28;20453;-82
2023/11/02 02:02:13;;;;;;;5.03;2.53;;;5.50;99.90;;;;;;5074935;28;20118;-82
2023/11/02 02:04:54;;;;;;;5.57;2.10;;;5.50;99.90;;;;;;5071926;28;20028;-85
2023/11/02 02:07:45;;;;;;;5.57;2.70;;;5.50;99.90;;;;;;5070363;28;20067;-84
2023/11/02 02:10:15;;;;;;;4.67;2.33;;;5.50;99.90;;;;;;5061050;28;20489;-84
2023/11/02 02:13:02;;;;;;;4.97;2.53;;;5.50;99.90;;;;;;5071178;28;20082;-83
2023/11/02 02:15:39;;;;;;;5.93;3.10;;;5.50;99.90;;;;;;5071161;28;20032;-84
2023/11/02 02:18:09;;;;;;;4.93;2.90;;;5.50;99.90;;;;;;5075521;28;21502;-83
2023/11/02 02:20:35;;;;;;;5.23;3.10;;;5.50;99.90;;;;;;5079244;28;20040;-84
2023/11/02 02:23:15;;;;;;;6.63;3.53;;;5.50;99.90;;;;;;5084322;28;20016;-83
2023/11/02 02:25:59;;;;;;;20.70;3.77;;;5.60;99.90;;;;;;5083374;28;20032;-84
2023/11/02 02:28:42;;;;;;;4.87;2.67;;;5.60;99.90;;;;;;5071556;28;20031;-86
2023/11/02 02:31:21;;;;;;;5.27;2.87;;;5.60;99.90;;;;;;5073249;28;20064;-82
2023/11/02 02:34:24;;;;;;;6.07;3.33;;;5.60;99.90;;;;;;5074401;28;20055;-85
2023/11/02 02:36:50;;;;;;;5.37;3.00;;;5.60;99.90;;;;;;5067747;28;20032;-81
2023/11/02 02:39:20;;;;;;;7.73;3.63;;;5.60;99.90;;;;;;5070043;28;20765;-84
2023/11/02 02:41:52;;;;;;;6.90;3.10;;;5.60;99.90;;;;;;5068312;28;20582;-85
2023/11/02 02:44:21;;;;;;;6.77;2.97;;;5.60;99.90;;;;;;5070207;28;20036;-81
2023/11/02 02:46:47;;;;;;;4.60;2.43;;;5.60;99.90;;;;;;5069575;28;20036;-84
2023/11/02 02:49:14;;;;;;;6.93;3.53;;;5.60;99.90;;;;;;5069447;28;20039;-85
2023/11/02 02:51:45;;;;;;;6.27;3.00;;;5.60;99.90;;;;;;5070397;28;20114;-87
2023/11/02 02:54:12;;;;;;;6.40;3.20;;;5.60;99.90;;;;;;5070455;28;20097;-82
2023/11/02 02:56:41;;;;;;;5.37;3.03;;;5.50;99.90;;;;;;5069936;28;20039;-83
2023/11/02 02:59:15;;;;;;;6.70;2.70;;;5.50;99.90;;;;;;5074078;28;20021;-82
2023/11/02 03:01:43;;;;;;;7.57;3.03;;;5.50;99.90;;;;;;5069586;28;20036;-82
2023/11/02 03:04:12;;;;;;;4.17;2.43;;;5.50;99.90;;;;;;5069630;28;20777;-83
2023/11/02 03:06:43;;;;;;;5.10;2.87;;;5.40;99.90;;;;;;5070024;28;20036;-85
2023/11/02 03:09:14;;;;;;;4.17;2.60;;;5.40;99.90;;;;;;5069273;28;20016;-84
2023/11/02 03:11:43;;;;;;;5.07;2.77;;;5.40;99.90;;;;;;5070016;28;20028;-82
2023/11/02 03:14:13;;;;;;;5.73;2.53;;;5.30;99.90;;;;;;5069674;28;20031;-84
2023/11/02 03:16:42;;;;;;;3.33;2.03;;;5.30;99.90;;;;;;5069024;28;20070;-83
2023/11/02 03:19:08;;;;;;;4.90;2.20;;;5.30;99.90;;;;;;5069415;28;20017;-86
2023/11/02 03:21:34;;;;;;;3.57;2.10;;;5.30;99.90;;;;;;5069370;28;20035;-83
2023/11/02 03:24:03;;;;;;;3.40;1.80;;;5.30;99.90;;;;;;5069566;28;20647;-85
2023/11/02 03:26:36;;;;;;;3.50;1.90;;;5.30;99.90;;;;;;5068852;28;20032;-82
2023/11/02 03:29:26;;;;;;;4.43;2.00;;;5.30;99.90;;;;;;5069110;28;20221;-82
2023/11/02 03:32:17;;;;;;;4.77;2.00;;;5.40;99.90;;;;;;5068183;28;20033;-84
2023/11/02 03:35:05;;;;;;;4.10;1.90;;;5.40;99.90;;;;;;5074471;28;20040;-87
2023/11/02 03:38:06;;;;;;;3.03;1.93;;;5.40;99.90;;;;;;5070956;28;20673;-83
2023/11/02 03:40:41;;;;;;;3.70;1.80;;;5.50;99.90;;;;;;5065339;28;20044;-82
2023/11/02 03:43:20;;;;;;;4.50;1.90;;;5.50;99.90;;;;;;5070825;28;20039;-82
2023/11/02 03:46:50;;;;;;;4.10;1.90;;;5.50;99.90;;;;;;5069424;28;20104;-86
2023/11/02 03:49:29;;;;;;;3.97;1.73;;;5.60;99.90;;;;;;5000423;28;20034;-82
2023/11/02 03:52:20;;;;;;;3.60;1.80;;;5.60;99.90;;;;;;4999755;28;20117;-84
2023/11/02 03:54:57;;;;;;;3.20;1.80;;;5.70;99.90;;;;;;5062310;28;20048;-84
2023/11/02 03:57:37;;;;;;;2.40;1.80;;;5.70;99.90;;;;;;5069788;28;20029;-84
2023/11/02 04:00:20;;;;;;;5.10;1.90;;;5.80;99.90;;;;;;5069834;28;20040;-82
2023/11/02 04:02:49;;;;;;;3.43;1.93;;;5.80;99.90;;;;;;5070068;28;20036;-82
2023/11/02 04:05:15;;;;;;;6.50;1.73;;;5.80;99.90;;;;;;5069649;28;20033;-84
2023/11/02 04:08:05;;;;;;;3.23;1.60;;;5.80;99.90;;;;;;5069312;28;20046;-84
2023/11/02 04:10:35;;;;;;;2.23;1.60;;;5.90;99.90;;;;;;5074807;28;20028;-85
2023/11/02 04:13:22;;;;;;;3.90;1.63;;;5.90;99.90;;;;;;5069058;28;20025;-85
2023/11/02 04:15:52;;;;;;;2.17;1.50;;;5.90;99.90;;;;;;5070014;28;20021;-82
2023/11/02 04:18:18;;;;;;;4.37;1.67;;;6.00;99.90;;;;;;5068831;28;20024;-85
2023/11/02 04:20:44;;;;;;;4.70;1.43;;;6.00;99.90;;;;;;5070010;28;20106;-82
2023/11/02 04:23:11;;;;;;;3.03;1.57;;;6.00;99.90;;;;;;5069867;28;20033;-83
2023/11/02 04:25:37;;;;;;;2.97;1.50;;;6.00;99.90;;;;;;5069425;28;20040;-85
2023/11/02 04:28:03;;;;;;;2.70;1.60;;;6.00;99.90;;;;;;5070310;28;20017;-84
2023/11/02 04:30:31;;;;;;;4.60;2.60;;;6.00;99.90;;;;;;5072850;28;20028;-81
2023/11/02 04:32:57;;;;;;;21.70;14.87;;;6.00;99.90;;;;;;5073097;28;20020;-87
2023/11/02 04:35:22;;;;;;;3.87;2.50;;;6.00;99.90;;;;;;5073259;28;20031;-83
2023/11/02 04:38:08;;;;;;;4.20;1.70;;;6.00;99.90;;;;;;5076043;28;20039;-81
2023/11/02 04:40:34;;;;;;;4.75;1.70;;;6.10;99.90;;;;;;5074586;28;20037;-81
2023/11/02 04:43:01;;;;;;;3.13;1.53;;;6.10;99.90;;;;;;5078505;28;20040;-86
2023/11/02 04:45:29;;;;;;;8.60;1.93;;;6.10;99.90;;;;;;5080049;28;20040;-84
2023/11/02 04:47:55;;;;;;;3.30;1.60;;;6.10;99.90;;;;;;5075130;28;20051;-85
2023/11/02 04:50:21;;;;;;;2.33;1.60;;;6.10;99.90;;;;;;5072985;28;20031;-86
2023/11/02 04:52:49;;;;;;;4.97;1.87;;;6.10;99.90;;;;;;5070253;28;20052;-84
2023/11/02 04:55:14;;;;;;;2.30;1.80;;;6.20;99.90;;;;;;5069567;28;20560;-84
2023/11/02 04:57:40;;;;;;;3.77;1.60;;;6.20;99.90;;;;;;5072258;28;20036;-81
2023/11/02 05:00:08;;;;;;;4.10;1.67;;;6.20;99.90;;;;;;5067643;28;20040;-81
2023/11/02 05:02:33;;;;;;;2.60;1.60;;;6.20;99.90;;;;;;5070181;28;20560;-84
2023/11/02 05:04:59;;;;;;;2.97;1.60;;;6.30;99.90;;;;;;5070626;28;20033;-86
2023/11/02 05:07:25;;;;;;;3.60;1.60;;;6.30;99.90;;;;;;5072417;28;20037;-84
2023/11/02 05:09:51;;;;;;;5.20;2.33;;;6.30;99.90;;;;;;5071657;28;20112;-87
2023/11/02 05:12:17;;;;;;;6.37;2.60;;;6.40;99.90;;;;;;5073904;28;20155;-82
2023/11/02 05:14:43;;;;;;;7.00;5.60;;;6.40;99.90;;;;;;5076730;28;20035;-88
2023/11/02 05:17:09;;;;;;;3.90;2.40;;;6.40;99.90;;;;;;5081893;28;20028;-84
2023/11/02 05:19:34;;;;;;;4.00;2.10;;;6.50;99.90;;;;;;5090045;28;20024;-81
2023/11/02 05:22:00;;;;;;;2.67;1.90;;;6.50;99.90;;;;;;5083697;28;20376;-85
2023/11/02 05:24:26;;;;;;;4.67;2.00;;;6.50;99.90;;;;;;5075477;28;20024;-83
2023/11/02 05:26:51;;;;;;;14.13;7.63;;;6.60;99.90;;;;;;5072403;28;20039;-86
2023/11/02 05:29:17;;;;;;;5.63;2.83;;;6.60;99.90;;;;;;5072937;28;20028;-85
2023/11/02 05:31:42;;;;;;;2.87;2.00;;;6.60;99.90;;;;;;5072932;28;20054;-82
2023/11/02 05:34:08;;;;;;;3.20;2.17;;;6.60;99.90;;;;;;5072900;28;20404;-83
2023/11/02 05:36:33;;;;;;;2.63;2.20;;;6.70;99.90;;;;;;5072122;28;20032;-87
2023/11/02 05:38:59;;;;;;;3.13;1.83;;;6.70;99.90;;;;;;5071424;28;20395;-82
2023/11/02 05:41:25;;;;;;;2.33;1.70;;;6.70;99.90;;;;;;5071106;28;20041;-83
2023/11/02 05:43:50;;;;;;;5.03;1.57;;;6.70;99.90;;;;;;5069969;28;20036;-85
2023/11/02 05:46:16;;;;;;;2.67;1.80;;;6.70;99.90;;;;;;5069220;28;20040;-85
2023/11/02 05:48:42;;;;;;;8.53;3.67;;;6.80;99.90;;;;;;5069812;28;20028;-86
2023/11/02 05:51:07;;;;;;;10.60;7.13;;;6.80;99.90;;;;;;5070796;28;20402;-87
2023/11/02 05:53:33;;;;;;;4.90;3.47;;;6.90;99.90;;;;;;5072200;28;20047;-84
2023/11/02 05:55:59;;;;;;;6.17;4.07;;;6.80;99.90;;;;;;5073777;28;20104;-88
2023/11/02 05:58:25;;;;;;;5.20;2.50;;;6.90;99.90;;;;;;5068531;28;20114;-83
2023/11/02 06:00:50;;;;;;;7.13;6.13;;;6.90;99.90;;;;;;5068617;28;20608;-82
2023/11/02 06:03:16;;;;;;;5.00;3.07;;;6.90;99.90;;;;;;5069233;28;20513;-85
2023/11/02 06:05:41;;;;;;;4.90;3.10;;;6.90;99.90;;;;;;5069506;28;21359;-85
2023/11/02 06:08:07;;;;;;;3.67;2.00;;;6.90;99.90;;;;;;5069691;28;20169;-81
2023/11/02 06:10:32;;;;;;;5.00;1.60;;;7.00;99.90;;;;;;5069459;28;20024;-83
2023/11/02 06:12:58;;;;;;;1.83;1.50;;;7.00;99.90;;;;;;5069098;28;20021;-85
2023/11/02 06:15:24;;;;;;;7.70;2.13;;;7.00;99.90;;;;;;5068267;28;20037;-85
2023/11/02 06:17:49;;;;;;;3.53;1.70;;;7.00;99.90;;;;;;5065906;28;20127;-87
2023/11/02 06:20:15;;;;;;;5.20;2.10;;;7.00;99.90;;;;;;5067981;28;21361;-86
2023/11/02 06:22:41;;;;;;;4.40;1.77;;;7.10;99.90;;;;;;5067095;28;20115;-84
2023/11/02 06:25:08;;;;;;;3.57;2.20;;;7.10;99.90;;;;;;5068493;28;20032;-87
2023/11/02 06:27:33;;;;;;;4.97;2.40;;;7.10;99.90;;;;;;5068038;28;20043;-83
2023/11/02 06:29:59;;;;;;;4.90;1.83;;;7.10;99.90;;;;;;5072858;28;20032;-88
2023/11/02 06:32:24;;;;;;;4.63;1.50;;;7.20;99.90;;;;;;5069871;28;20403;-82
2023/11/02 06:34:50;;;;;;;5.70;1.37;;;7.20;99.90;;;;;;5066278;28;20115;-80
2023/11/02 06:37:18;;;;;;;3.23;1.47;;;7.20;99.90;;;;;;5068247;28;20387;-81
2023/11/02 06:39:45;;;;;;;3.37;1.53;;;7.20;99.90;;;;;;5069698;28;21414;-78
2023/11/02 06:42:12;;;;;;;3.20;1.60;;;7.30;99.90;;;;;;5071881;28;20054;-85
2023/11/02 06:44:43;;;;;;;2.30;1.37;;;7.30;99.90;;;;;;5069548;28;20055;-85
2023/11/02 06:47:11;;;;;;;5.03;1.70;;;7.30;99.90;;;;;;5074346;28;20109;-90
2023/11/02 06:49:37;;;;;;;5.83;1.90;;;7.40;99.90;;;;;;5071224;28;20541;-84
2023/11/02 06:52:04;;;;;;;7.07;2.20;;;7.40;99.90;;;;;;5068477;28;20028;-88
2023/11/02 06:54:29;;;;;;;3.43;1.60;;;7.40;99.90;;;;;;5072261;28;20050;-84
2023/11/02 06:56:55;;;;;;;3.27;1.57;;;7.40;99.90;;;;;;5072633;28;20028;-85
2023/11/02 06:59:20;;;;;;;3.17;1.37;;;7.40;99.90;;;;;;5073010;28;20028;-85
2023/11/02 07:01:50;;;;;;;8.37;1.67;;;7.50;99.90;;;;;;5072561;28;20107;-83
2023/11/02 07:04:16;;;;;;;4.00;2.30;;;7.50;99.90;;;;;;5070754;28;21340;-84
2023/11/02 07:06:41;;;;;;;4.10;2.03;;;7.50;99.90;;;;;;5074259;28;20072;-83
2023/11/02 07:09:07;;;;;;;2.57;1.60;;;7.60;99.90;;;;;;5065779;28;20116;-86
2023/11/02 07:11:33;;;;;;;5.90;1.77;;;7.60;99.90;;;;;;5064755;28;20040;-88
2023/11/02 07:13:58;;;;;;;2.83;1.20;;;7.60;99.90;;;;;;5065288;28;20820;-85
2023/11/02 07:16:24;;;;;;;4.70;1.40;;;7.70;99.90;;;;;;5063909;28;20024;-86
2023/11/02 07:18:50;;;;;;;4.70;1.53;;;7.70;99.90;;;;;;5065419;28;20028;-86
2023/11/02 07:21:17;;;;;;;5.77;1.57;;;7.80;99.90;;;;;;5061998;28;20159;-83
2023/11/02 07:23:43;;;;;;;2.97;1.40;;;7.90;99.90;;;;;;5069396;28;20084;-84
2023/11/02 07:26:09;;;;;;;4.73;2.47;;;7.90;99.90;;;;;;5069187;28;20044;-84
2023/11/02 07:28:35;;;;;;;3.77;1.60;;;8.00;99.90;;;;;;5070905;28;20032;-84
2023/11/02 07:31:03;;;;;;;2.47;1.30;;;8.00;99.90;;;;;;5071549;28;20039;-84
2023/11/02 07:33:28;;;;;;;3.80;1.43;;;8.10;99.90;;;;;;5069514;28;20033;-84
2023/11/02 07:35:54;;;;;;;4.10;1.67;;;8.10;99.90;;;;;;5071898;28;20032;-84
2023/11/02 07:38:20;;;;;;;3.30;1.80;;;8.20;99.90;;;;;;5072606;28;20407;-84
2023/11/02 07:40:46;;;;;;;3.13;1.60;;;8.20;99.90;;;;;;5076057;28;20118;-85
2023/11/02 07:43:12;;;;;;;5.40;2.30;;;8.20;99.90;;;;;;5071075;28;20031;-85
2023/11/02 07:45:37;;;;;;;60.07;28.07;;;8.30;99.90;;;;;;5069787;28;20450;-85
2023/11/02 07:48:03;;;;;;;22.87;8.13;;;8.30;99.90;;;;;;5069006;28;20043;-84
2023/11/02 07:50:29;;;;;;;24.60;12.03;;;8.40;99.90;;;;;;5068751;28;20047;-84
2023/11/02 07:52:54;;;;;;;9.73;5.07;;;8.40;99.90;;;;;;5069457;28;20032;-84
2023/11/02 07:55:20;;;;;;;15.77;9.13;;;8.50;99.90;;;;;;5069276;28;20775;-84
2023/11/02 07:57:47;;;;;;;16.33;9.30;;;8.60;99.90;;;;;;5068278;28;20029;-84
2023/11/02 08:00:15;;;;;;;14.53;8.30;;;8.60;99.90;;;;;;5071685;28;20151;-84
2023/11/02 08:02:40;;;;;;;16.73;10.07;;;8.60;99.90;;;;;;5072766;28;20031;-85
2023/11/02 08:05:07;;;;;;;4.53;2.80;;;8.70;99.90;;;;;;5078502;28;20035;-84
2023/11/02 08:07:33;;;;;;;9.30;4.63;;;8.70;99.90;;;;;;5089384;28;20047;-86
2023/11/02 08:09:58;;;;;;;13.13;9.47;;;8.70;99.90;;;;;;5105601;28;20044;-85
2023/11/02 08:12:25;;;;;;;7.97;5.50;;;8.70;99.90;;;;;;5105384;28;20012;-85
2023/11/02 08:14:51;;;;;;;17.60;13.27;;;8.70;99.90;;;;;;5088450;28;20041;-84
2023/11/02 08:17:19;;;;;;;24.20;18.33;;;8.80;99.90;;;;;;5077717;28;20036;-84
2023/11/02 08:19:46;;;;;;;13.40;9.37;;;8.80;99.90;;;;;;5075042;28;20032;-84
2023/11/02 08:22:11;;;;;;;6.27;4.23;;;8.90;99.90;;;;;;5074610;28;20028;-84
2023/11/02 08:24:40;;;;;;;5.97;2.53;;;8.90;99.90;;;;;;5074246;28;20691;-84
2023/11/02 08:27:05;;;;;;;3.33;1.80;;;8.90;99.90;;;;;;5073806;28;20443;-84
2023/11/02 08:29:32;;;;;;;10.00;7.90;;;8.90;99.90;;;;;;5075160;28;20028;-84
2023/11/02 08:31:58;;;;;;;6.73;3.63;;;8.90;99.90;;;;;;5073864;28;20032;-84
2023/11/02 08:34:23;;;;;;;3.83;1.70;;;8.90;99.90;;;;;;5074158;28;20073;-84
2023/11/02 08:36:49;;;;;;;15.30;6.47;;;9.00;99.90;;;;;;5073971;28;20154;-85
2023/11/02 08:39:15;;;;;;;6.40;3.17;;;9.00;99.90;;;;;;5074670;28;20031;-84
2023/11/02 08:41:42;;;;;;;18.20;13.03;;;9.00;99.90;;;;;;5073905;28;20023;-85
2023/11/02 08:44:07;;;;;;;7.87;3.97;;;9.10;99.90;;;;;;5073981;28;20025;-84
2023/11/02 08:46:34;;;;;;;26.50;17.40;;;9.10;99.90;;;;;;5069364;28;20113;-84
2023/11/02 08:49:00;;;;;;;13.80;6.07;;;9.10;99.90;;;;;;5069204;28;20082;-84
2023/11/02 08:51:25;;;;;;;4.73;2.20;;;9.20;99.90;;;;;;5073717;28;20028;-84
2023/11/02 08:53:51;;;;;;;7.50;2.40;;;9.20;99.90;;;;;;5069847;28;20074;-84
2023/11/02 08:56:17;;;;;;;47.53;30.30;;;9.30;99.90;;;;;;5068252;28;20033;-84
2023/11/02 08:58:46;;;;;;;27.17;16.57;;;9.30;99.90;;;;;;5073334;28;20111;-84
2023/11/02 09:01:18;;;;;;;77.50;39.93;;;9.30;99.90;;;;;;5074540;28;20483;-84
2023/11/02 09:03:44;;;;;;;15.07;6.93;;;9.30;99.90;;;;;;5073697;28;20024;-84
2023/11/02 09:06:10;;;;;;;6.43;2.70;;;9.40;99.90;;;;;;5073807;28;20043;-85
2023/11/02 09:08:36;;;;;;;10.90;7.00;;;9.40;99.90;;;;;;5074177;28;20020;-84
2023/11/02 09:11:03;;;;;;;7.73;2.67;;;9.50;99.90;;;;;;5073593;28;20027;-85
2023/11/02 09:13:30;;;;;;;3.07;1.67;;;9.60;99.90;;;;;;5072634;28;20032;-86
2023/11/02 09:15:56;;;;;;;5.03;1.90;;;9.70;99.90;;;;;;5073270;28;20206;-85
2023/11/02 09:18:24;;;;;;;4.07;1.90;;;9.70;99.90;;;;;;5072065;28;20487;-86
2023/11/02 09:20:50;;;;;;;6.47;1.50;;;9.80;99.90;;;;;;5074096;28;20170;-85
2023/11/02 09:23:16;;;;;;;4.67;1.77;;;9.80;99.90;;;;;;5073221;28;20107;-85
2023/11/02 09:25:44;;;;;;;6.90;1.73;;;9.90;99.90;;;;;;5072085;28;20059;-85
2023/11/02 09:28:10;;;;;;;3.13;1.83;;;9.90;99.90;;;;;;5076389;28;20265;-85
2023/11/02 09:30:35;;;;;;;5.67;1.70;;;10.00;99.90;;;;;;5072695;28;20388;-85
2023/11/02 09:33:01;;;;;;;4.77;1.77;;;10.00;99.90;;;;;;5071476;28;20035;-85
2023/11/02 09:35:27;;;;;;;4.43;1.80;;;10.00;99.90;;;;;;5070845;28;20419;-85
2023/11/02 09:37:53;;;;;;;4.73;1.60;;;10.00;99.90;;;;;;5071201;28;20702;-86
2023/11/02 09:40:18;;;;;;;4.23;1.80;;;10.00;99.90;;;;;;5071265;28;20545;-85
2023/11/02 09:42:45;;;;;;;6.10;1.80;;;10.10;99.90;;;;;;5071823;28;20170;-85
2023/11/02 09:45:12;;;;;;;4.07;1.40;;;10.10;99.90;;;;;;5071822;28;20039;-84
2023/11/02 09:47:38;;;;;;;6.37;1.90;;;10.20;99.90;;;;;;5073438;28;20040;-85
2023/11/02 09:50:07;;;;;;;5.83;1.67;;;10.10;99.90;;;;;;5072237;28;20814;-85
2023/11/02 09:52:33;;;;;;;4.07;1.70;;;10.20;99.90;;;;;;5072307;28;20079;-85
2023/11/02 09:55:00;;;;;;;5.33;1.80;;;10.30;99.90;;;;;;5072792;28;20679;-84
2023/11/02 09:57:26;;;;;;;7.70;1.50;;;10.30;99.90;;;;;;5073105;28;20020;-85
2023/11/02 09:59:51;;;;;;;14.87;3.60;;;10.30;99.90;;;;;;5071356;28;20077;-85
2023/11/02 10:02:19;;;;;;;6.37;2.00;;;10.40;99.90;;;;;;5075433;28;20025;-85
2023/11/02 10:04:45;;;;;;;9.93;3.45;;;10.40;99.90;;;;;;5071152;28;20032;-86
2023/11/02 10:07:12;;;;;;;13.23;3.10;;;10.50;99.90;;;;;;5070782;28;20048;-85
2023/11/02 10:09:38;;;;;;;13.23;9.57;;;10.60;99.90;;;;;;5069959;28;20036;-86
2023/11/02 10:12:04;;;;;;;6.60;2.40;;;10.60;99.90;;;;;;5069213;28;20017;-86
2023/11/02 10:14:32;;;;;;;5.90;2.13;;;10.70;99.90;;;;;;5070206;28;21167;-85
2023/11/02 10:17:02;;;;;;;24.87;10.90;;;10.70;99.90;;;;;;5069800;28;20024;-85
2023/11/02 10:19:29;;;;;;;6.53;2.60;;;10.70;99.90;;;;;;5068994;28;20024;-85
2023/11/02 10:21:55;;;;;;;4.57;2.10;;;10.70;99.90;;;;;;5071120;28;20143;-85
2023/11/02 10:24:32;;;;;;;12.83;2.13;;;10.70;99.90;;;;;;5069375;28;20564;-86
2023/11/02 10:26:59;;;;;;;4.45;1.80;;;10.70;99.90;;;;;;5067459;28;20168;-85
2023/11/02 10:29:28;;;;;;;9.17;3.70;;;10.70;99.90;;;;;;5068465;28;20070;-85
2023/11/02 10:31:56;;;;;;;14.13;5.40;;;10.60;99.90;;;;;;5069924;28;20022;-86
2023/11/02 10:34:23;;;;;;;7.13;3.53;;;10.70;99.90;;;;;;5069667;28;20074;-85
2023/11/02 10:36:49;;;;;;;7.50;4.03;;;10.60;99.90;;;;;;5071090;28;20546;-85
2023/11/02 10:39:22;;;;;;;9.63;3.37;;;10.50;99.90;;;;;;5070489;28;20024;-86
2023/11/02 10:42:01;;;;;;;45.53;26.27;;;10.50;99.90;;;;;;5069743;28;20032;-85
2023/11/02 10:44:31;;;;;;;239.50;139.93;;;10.40;99.90;;;;;;5068085;28;20630;-85
2023/11/02 10:47:01;;;;;;;53.60;28.43;;;10.30;99.90;;;;;;5069543;28;20047;-85
2023/11/02 10:49:35;;;;;;;9.13;3.83;;;10.30;99.90;;;;;;5068067;28;20032;-86
2023/11/02 10:52:07;;;;;;;8.52;2.90;;;10.30;99.90;;;;;;5068751;28;20035;-86
2023/11/02 10:54:33;;;;;;;5.33;1.83;;;10.30;99.90;;;;;;5066969;28;20733;-85
2023/11/02 10:57:09;;;;;;;7.23;2.17;;;10.30;99.90;;;;;;5069056;28;20032;-85
2023/11/02 10:59:36;;;;;;;5.93;2.73;;;10.30;99.90;;;;;;5072568;28;20046;-85
2023/11/02 11:02:03;;;;;;;7.87;2.60;;;10.20;99.90;;;;;;5075996;28;20036;-86
2023/11/02 11:04:32;;;;;;;7.23;3.93;;;10.20;99.90;;;;;;5084236;28;20023;-86
2023/11/02 11:06:59;;;;;;;5.80;2.47;;;10.20;99.90;;;;;;5105936;28;20028;-86
2023/11/02 11:09:26;;;;;;;5.40;3.73;;;10.10;99.90;;;;;;5109460;28;20008;-85
2023/11/02 11:11:53;;;;;;;6.10;2.40;;;10.00;99.90;;;;;;5083059;28;20494;-85
2023/11/02 11:14:20;;;;;;;3.53;2.10;;;10.00;99.90;;;;;;5073701;28;20171;-85
2023/11/02 11:16:47;;;;;;;5.50;2.60;;;10.00;99.90;;;;;;5070336;28;20038;-85
2023/11/02 11:19:13;;;;;;;4.77;2.40;;;9.90;99.90;;;;;;5071283;28;20095;-86
2023/11/02 11:21:41;;;;;;;5.53;2.57;;;9.90;99.90;;;;;;5070432;28;20058;-86
2023/11/02 11:24:17;;;;;;;6.40;2.40;;;9.80;99.90;;;;;;5067666;28;20020;-85
2023/11/02 11:26:47;;;;;;;6.60;2.07;;;9.80;99.90;;;;;;5069159;28;20042;-86
2023/11/02 11:29:38;;;;;;;3.00;2.03;;;9.80;99.90;;;;;;5068926;28;20032;-85
2023/11/02 11:32:09;;;;;;;5.20;2.13;;;9.80;99.90;;;;;;5069212;28;20092;-85
2023/11/02 11:35:04;;;;;;;3.87;2.30;;;9.70;99.90;;;;;;5070209;28;20097;-85
2023/11/02 11:37:50;;;;;;;5.57;2.63;;;9.70;99.90;;;;;;5070206;28;20032;-85
2023/11/02 11:40:23;;;;;;;5.07;2.07;;;9.60;99.90;;;;;;5071138;28;20037;-85
2023/11/02 11:42:52;;;;;;;7.60;2.20;;;9.60;99.90;;;;;;5067225;28;20495;-85
2023/11/02 11:45:27;;;;;;;4.33;2.20;;;9.60;99.90;;;;;;5069705;28;20032;-84
2023/11/02 11:47:54;;;;;;;6.63;2.33;;;9.50;99.90;;;;;;5072013;28;20123;-83
2023/11/02 11:50:36;;;;;;;5.23;3.03;;;9.50;99.90;;;;;;5070594;28;20155;-85
2023/11/02 11:53:09;;;;;;;3.50;2.20;;;9.50;99.90;;;;;;5070488;28;20113;-85
2023/11/02 11:55:37;;;;;;;5.30;2.80;;;9.40;99.90;;;;;;5070214;28;20028;-84
2023/11/02 11:58:09;;;;;;;9.43;3.00;;;9.40;99.90;;;;;;5074793;28;20057;-84
2023/11/02 12:00:58;;;;;;;6.57;2.77;;;9.40;99.90;;;;;;5073832;28;20086;-85
2023/11/02 12:03:35;;;;;;;6.80;2.50;;;9.50;99.90;;;;;;5071288;28;20035;-85
2023/11/02 12:06:10;;;;;;;5.97;2.37;;;9.50;99.90;;;;;;5071463;28;20459;-85
2023/11/02 12:08:45;;;;;;;4.05;2.22;;;9.50;99.90;;;;;;5071168;28;20043;-85
2023/11/02 12:11:14;;;;;;;2.85;2.15;;;9.50;99.90;;;;;;5070448;28;20032;-85
2023/11/02 12:13:49;;;;;;;3.70;2.33;;;9.50;99.90;;;;;;5069733;28;20088;-85
2023/11/02 12:16:15;;;;;;;6.47;3.00;;;9.50;99.90;;;;;;5070292;28;20035;-83
2023/11/02 12:18:43;;;;;;;5.73;2.47;;;9.50;99.90;;;;;;5069282;28;20037;-84
2023/11/02 12:21:17;;;;;;;3.20;2.30;;;9.40;99.90;;;;;;5068922;28;20039;-84
2023/11/02 12:23:44;;;;;;;5.97;2.47;;;9.50;99.90;;;;;;5068633;28;20028;-84
2023/11/02 12:26:10;;;;;;;5.43;2.20;;;9.40;99.90;;;;;;5068848;28;20036;-85
2023/11/02 12:28:45;;;;;;;4.60;2.40;;;9.40;99.90;;;;;;5067562;28;20032;-85
2023/11/02 12:31:12;;;;;;;6.87;2.27;;;9.40;99.90;;;;;;5067941;28;20020;-83
2023/11/02 12:33:40;;;;;;;5.33;2.60;;;9.40;99.90;;;;;;5066298;28;20510;-83
2023/11/02 12:36:06;;;;;;;6.40;2.40;;;9.40;99.90;;;;;;5066800;28;20051;-83
2023/11/02 12:38:48;;;;;;;4.13;2.10;;;9.40;99.90;;;;;;5066625;28;20082;-83
2023/11/02 12:41:30;;;;;;;4.80;2.17;;;9.40;99.90;;;;;;5065453;28;20028;-84
2023/11/02 12:44:07;;;;;;;3.13;2.13;;;9.40;99.90;;;;;;5065509;28;20025;-83
2023/11/02 12:46:42;;;;;;;5.03;2.43;;;9.40;99.90;;;;;;5063705;28;20048;-83
2023/11/02 12:49:22;;;;;;;5.50;2.15;;;9.50;99.90;;;;;;5065147;28;20024;-83
2023/11/02 12:51:53;;;;;;;4.27;2.30;;;9.50;99.90;;;;;;5073967;28;20024;-84
2023/11/02 12:54:20;;;;;;;5.03;2.23;;;9.50;99.90;;;;;;5073572;28;20821;-84
2023/11/02 12:56:50;;;;;;;6.57;2.47;;;9.60;99.90;;;;;;5075131;28;20028;-84
2023/11/02 12:59:16;;;;;;;5.57;2.27;;;9.60;99.90;;;;;;5074296;28;21415;-83
2023/11/02 13:01:54;;;;;;;5.00;2.07;;;9.60;99.90;;;;;;5075241;28;20024;-83
2023/11/02 13:04:24;;;;;;;8.33;2.30;;;9.60;99.90;;;;;;5073609;28;20046;-84
2023/11/02 13:06:52;;;;;;;8.67;2.30;;;9.60;99.90;;;;;;5073739;28;20036;-83
2023/11/02 13:09:19;;;;;;;6.00;2.13;;;9.60;99.90;;;;;;5073285;28;20029;-82